Time;durP1;ratioP1;P1;durP2;ratioP2;P2;SDS_P1;SDS_P2;PMS_P1;PMS_P2;Temp;Humidity;BMP_temperature;BMP_pressure;BME280_temperature;BME280_humidity;BME280_pressure;Samples;Min_cycle;Max_cycle;Signal;HPM_P1;HPM_P2
2023/03/17 00:01:15;;;;;;;2.88;2.08;;;;;;;10.73;80.07;98792.16;5048216;28;20143;-48
2023/03/17 00:03:45;;;;;;;3.25;1.95;;;;;;;10.74;80.03;98787.84;5057933;28;20098;-49
2023/03/17 00:06:16;;;;;;;3.97;1.80;;;;;;;10.76;80.04;98796.41;5048538;28;20047;-49
2023/03/17 00:08:45;;;;;;;3.13;1.55;;;;;;;10.75;80.14;98793.00;5047122;28;20473;-48
2023/03/17 00:11:14;;;;;;;5.57;2.15;;;;;;;10.75;79.39;98790.41;5022179;28;20053;-48
2023/03/17 00:13:43;;;;;;;4.88;1.98;;;;;;;10.76;80.32;98789.50;5034933;28;20041;-48
2023/03/17 00:16:15;;;;;;;3.47;2.17;;;;;;;10.77;80.01;98791.22;5040147;28;20076;-49
2023/03/17 00:18:43;;;;;;;3.10;1.83;;;;;;;10.78;79.36;98803.25;5037435;28;20041;-47
2023/03/17 00:21:16;;;;;;;3.50;2.08;;;;;;;10.77;80.18;98804.16;5050130;28;20044;-48
2023/03/17 00:23:48;;;;;;;4.28;1.58;;;;;;;10.78;79.68;98808.44;5051710;28;20037;-50
2023/03/17 00:26:15;;;;;;;5.00;2.10;;;;;;;10.77;80.66;98804.16;5056558;28;20048;-49
2023/03/17 00:28:42;;;;;;;6.18;2.92;;;;;;;10.78;79.74;98808.44;5055667;28;20175;-49
2023/03/17 00:31:14;;;;;;;5.03;2.40;;;;;;;10.79;79.79;98812.75;5053085;28;20068;-49
2023/03/17 00:33:42;;;;;;;5.15;3.15;;;;;;;10.80;80.61;98819.63;5053565;28;20472;-48
2023/03/17 00:36:14;;;;;;;7.53;3.85;;;;;;;10.83;80.47;98817.84;5058894;28;20072;-49
2023/03/17 00:38:41;;;;;;;8.88;3.95;;;;;;;10.83;79.46;98813.53;5059378;28;20072;-53
2023/03/17 00:41:09;;;;;;;8.40;3.78;;;;;;;10.85;79.74;98813.50;5055677;28;20109;-48
2023/03/17 00:43:36;;;;;;;6.68;3.78;;;;;;;10.85;79.78;98810.91;5055635;28;20061;-51
2023/03/17 00:46:13;;;;;;;9.55;4.78;;;;;;;10.83;79.70;98823.03;5058607;28;20094;-48
2023/03/17 00:48:42;;;;;;;9.07;4.32;;;;;;;10.84;80.84;98819.56;5058805;28;20139;-52
2023/03/17 00:51:10;;;;;;;5.95;2.80;;;;;;;10.84;79.92;98824.75;5059709;28;20040;-49
2023/03/17 00:53:36;;;;;;;8.10;3.55;;;;;;;10.84;80.59;98824.75;5060578;28;20880;-52
2023/03/17 00:56:10;;;;;;;6.53;3.03;;;;;;;10.85;79.63;98821.25;5062434;28;20083;-50
2023/03/17 00:58:37;;;;;;;7.13;3.50;;;;;;;10.83;80.56;98823.88;5059313;28;20067;-50
2023/03/17 01:01:03;;;;;;;7.13;3.33;;;;;;;10.85;80.44;98834.22;5062406;28;20508;-51
2023/03/17 01:03:31;;;;;;;7.65;3.65;;;;;;;10.85;80.30;98832.47;5062234;28;20072;-51
2023/03/17 01:05:59;;;;;;;6.95;4.10;;;;;;;10.85;80.88;98831.63;5067447;28;20040;-47
2023/03/17 01:08:28;;;;;;;6.65;3.25;;;;;;;10.85;80.81;98826.44;5066597;28;20051;-49
2023/03/17 01:10:56;;;;;;;8.48;3.75;;;;;;;10.87;80.16;98829.81;5069943;28;20492;-49
2023/03/17 01:13:23;;;;;;;7.63;4.30;;;;;;;10.86;79.79;98823.81;5063367;28;20060;-47
2023/03/17 01:15:51;;;;;;;7.55;3.72;;;;;;;10.87;79.71;98819.47;5059457;28;20107;-49
2023/03/17 01:18:21;;;;;;;6.68;3.42;;;;;;;10.88;80.40;98810.81;5062494;28;20105;-49
2023/03/17 01:20:49;;;;;;;6.70;3.22;;;;;;;10.88;80.31;98810.81;5068631;28;20055;-48
2023/03/17 01:23:16;;;;;;;10.07;3.75;;;;;;;10.88;80.53;98808.25;5067063;28;20044;-48
2023/03/17 01:25:43;;;;;;;7.18;3.50;;;;;;;10.88;79.84;98805.66;5063582;28;20059;-47
2023/03/17 01:28:15;;;;;;;9.18;3.38;;;;;;;10.88;79.79;98811.66;5066134;28;20147;-49
2023/03/17 01:30:42;;;;;;;8.68;4.38;;;;;;;10.87;80.75;98814.28;5067613;28;20040;-49
2023/03/17 01:33:12;;;;;;;7.88;3.58;;;;;;;10.86;80.31;98815.19;5066601;28;20106;-51
2023/03/17 01:35:40;;;;;;;8.25;3.78;;;;;;;10.84;81.00;98802.25;5065761;28;20084;-48
2023/03/17 01:38:08;;;;;;;8.48;3.97;;;;;;;10.84;80.06;98807.44;5060102;28;20049;-47
2023/03/17 01:40:41;;;;;;;9.00;4.05;;;;;;;10.84;80.95;98804.03;5058055;28;20110;-48
2023/03/17 01:54:47;;;;;;;6.10;3.00;;;;;;;10.76;80.08;98802.47;5058730;27;20409;-47
2023/03/17 01:59:54;;;;;;;7.55;3.13;;;;;;;10.73;80.55;98807.72;5037836;28;20638;-51
2023/03/17 02:02:27;;;;;;;7.65;3.67;;;;;;;10.70;80.75;98797.41;5004184;28;20050;-48
2023/03/17 02:04:54;;;;;;;8.50;3.75;;;;;;;10.70;80.22;98802.59;5000063;28;20138;-50
2023/03/17 02:07:22;;;;;;;6.85;3.22;;;;;;;10.68;80.82;98799.19;5001023;28;20139;-48
2023/03/17 02:09:51;;;;;;;10.25;4.00;;;;;;;10.68;81.14;98799.19;4998482;28;20057;-48
2023/03/17 02:12:21;;;;;;;8.85;3.75;;;;;;;10.69;80.46;98807.81;4996986;28;20052;-49
2023/03/17 02:14:47;;;;;;;8.30;3.63;;;;;;;10.69;81.11;98810.38;5001211;28;20125;-47
2023/03/17 02:17:14;;;;;;;8.45;2.90;;;;;;;10.66;80.97;98807.00;4992379;28;20088;-49
2023/03/17 02:19:41;;;;;;;9.65;3.78;;;;;;;10.67;80.62;98800.94;5000135;28;20112;-48
2023/03/17 02:22:08;;;;;;;8.80;3.92;;;;;;;10.67;80.50;98797.47;5001059;28;20046;-49
2023/03/17 02:27:16;;;;;;;10.65;5.53;;;;;;;10.67;80.35;98797.47;5048250;27;20390;-48
2023/03/17 02:29:45;;;;;;;11.00;5.63;;;;;;;10.66;80.82;98798.38;4998359;28;20755;-48
2023/03/17 02:32:14;;;;;;;9.55;4.82;;;;;;;10.65;80.71;98788.91;4997365;28;20152;-48
2023/03/17 02:34:41;;;;;;;7.80;5.00;;;;;;;10.63;80.99;98775.13;4993911;28;20104;-48
2023/03/17 02:37:08;;;;;;;7.38;3.90;;;;;;;10.62;80.83;98779.47;4995550;28;20148;-47
2023/03/17 02:39:35;;;;;;;6.68;3.30;;;;;;;10.61;80.59;98782.09;5002094;28;20143;-48
2023/03/17 02:42:02;;;;;;;7.18;4.55;;;;;;;10.62;81.36;98768.25;5040519;28;20120;-51
2023/03/17 02:44:30;;;;;;;7.88;4.22;;;;;;;10.62;80.14;98768.25;5017007;28;20674;-51
2023/03/17 02:46:57;;;;;;;5.90;3.30;;;;;;;10.60;80.73;98764.88;5017665;28;20045;-50
2023/03/17 02:49:26;;;;;;;7.03;3.45;;;;;;;10.59;80.76;98769.19;5020620;28;20520;-48
2023/03/17 02:51:53;;;;;;;6.20;3.88;;;;;;;10.58;80.63;98777.84;5019909;28;20041;-48
2023/03/17 02:54:19;;;;;;;7.90;3.88;;;;;;;10.54;79.85;98782.22;5015606;28;20057;-47
2023/03/17 02:56:46;;;;;;;7.72;3.80;;;;;;;10.50;81.02;98785.78;5023863;28;20785;-48
2023/03/17 02:59:12;;;;;;;5.78;3.15;;;;;;;10.45;79.95;98787.63;5016359;28;20120;-47
2023/03/17 03:01:39;;;;;;;6.70;4.03;;;;;;;10.43;80.69;98794.53;5019685;28;20140;-48
2023/03/17 03:04:06;;;;;;;7.50;4.38;;;;;;;10.43;80.66;98791.94;5016025;28;20050;-48
2023/03/17 03:06:33;;;;;;;6.18;3.80;;;;;;;10.42;80.31;98785.06;5021786;28;20070;-50
2023/03/17 03:08:59;;;;;;;7.22;3.45;;;;;;;10.41;80.74;98785.97;5026433;28;20095;-49
2023/03/17 03:11:28;;;;;;;6.70;2.97;;;;;;;10.40;80.70;98785.09;5022165;28;20458;-48
2023/03/17 03:13:55;;;;;;;6.82;3.25;;;;;;;10.41;80.12;98785.97;5020297;28;20524;-52
2023/03/17 03:16:21;;;;;;;8.00;4.95;;;;;;;10.38;80.51;98797.25;5022872;28;20128;-49
2023/03/17 03:18:48;;;;;;;5.30;3.60;;;;;;;10.37;80.44;98792.09;5028313;28;20119;-49
2023/03/17 03:21:15;;;;;;;5.68;2.83;;;;;;;10.32;81.22;98788.75;5019175;28;20061;-50
2023/03/17 03:23:42;;;;;;;6.22;4.13;;;;;;;10.33;80.57;98787.88;5027683;28;20110;-47
2023/03/17 03:26:08;;;;;;;5.72;3.28;;;;;;;10.32;80.27;98802.53;5025518;28;20042;-49
2023/03/17 03:28:35;;;;;;;8.00;3.75;;;;;;;10.32;80.98;98801.69;5021295;28;20058;-47
2023/03/17 03:31:02;;;;;;;8.15;4.13;;;;;;;10.29;81.06;98803.47;5019902;28;21787;-48
2023/03/17 03:33:28;;;;;;;7.03;4.20;;;;;;;10.27;80.71;98807.81;5023068;28;20060;-48
2023/03/17 03:35:55;;;;;;;7.70;4.75;;;;;;;10.25;80.43;98801.84;5020158;28;20072;-48
2023/03/17 03:38:22;;;;;;;11.80;4.97;;;;;;;10.24;80.73;98799.28;5008198;28;20064;-48
2023/03/17 03:40:49;;;;;;;12.25;5.00;;;;;;;10.22;80.38;98796.72;5011655;28;20136;-49
2023/03/17 03:43:15;;;;;;;9.60;5.30;;;;;;;10.19;80.88;98791.59;5000788;28;20517;-48
2023/03/17 03:45:50;;;;;;;10.52;5.50;;;;;;;10.17;81.03;98777.88;5004706;28;20502;-47
2023/03/17 03:48:17;;;;;;;13.75;6.55;;;;;;;10.19;80.39;98791.59;5006478;28;20077;-48
2023/03/17 03:50:44;;;;;;;13.23;6.63;;;;;;;10.17;81.13;98783.03;5004302;28;20045;-48
2023/03/17 03:53:11;;;;;;;10.93;6.03;;;;;;;10.19;80.42;98776.06;4987959;28;20089;-50
2023/03/17 03:55:37;;;;;;;12.43;6.20;;;;;;;10.19;80.28;98780.38;4996873;28;20124;-48
2023/03/17 03:58:04;;;;;;;13.73;6.47;;;;;;;10.16;80.66;98777.00;5001237;28;20573;-48
2023/03/17 04:00:31;;;;;;;10.38;4.95;;;;;;;10.17;81.17;98783.03;5006471;28;20088;-50
2023/03/17 04:02:59;;;;;;;10.60;4.00;;;;;;;10.16;81.11;98786.50;4999568;28;21160;-47
2023/03/17 04:05:26;;;;;;;10.13;6.07;;;;;;;10.12;80.81;98774.50;4995310;28;20511;-48
2023/03/17 04:07:52;;;;;;;9.40;4.57;;;;;;;10.09;81.21;98784.91;4998638;28;20241;-48
2023/03/17 04:10:19;;;;;;;7.30;4.60;;;;;;;10.11;81.26;98790.91;4996737;28;20147;-48
2023/03/17 04:12:46;;;;;;;11.63;4.30;;;;;;;10.08;81.81;98783.22;5000712;28;20606;-48
2023/03/17 04:15:15;;;;;;;9.25;4.43;;;;;;;10.07;81.69;98778.94;4999226;28;20145;-47
2023/03/17 04:17:43;;;;;;;7.80;4.68;;;;;;;10.01;81.19;98790.25;4999515;28;20054;-49
2023/03/17 04:20:12;;;;;;;8.32;4.32;;;;;;;9.96;81.45;98785.19;4997824;28;20131;-50
2023/03/17 04:22:40;;;;;;;9.68;3.92;;;;;;;9.94;81.47;98781.78;4997542;28;20101;-50
2023/03/17 04:25:09;;;;;;;6.15;3.78;;;;;;;9.91;81.36;98776.66;4996900;28;20054;-48
2023/03/17 04:27:36;;;;;;;7.38;3.90;;;;;;;9.85;82.33;98775.06;5028719;28;20080;-49
2023/03/17 04:30:04;;;;;;;7.00;4.32;;;;;;;9.82;81.42;98769.94;5000857;28;20070;-47
2023/03/17 04:32:30;;;;;;;8.20;4.13;;;;;;;9.79;81.58;98775.16;5011522;28;20046;-49
2023/03/17 04:34:57;;;;;;;5.57;3.25;;;;;;;9.76;81.49;98775.22;5003609;28;20077;-48
2023/03/17 04:37:24;;;;;;;9.85;4.40;;;;;;;9.79;81.38;98787.25;5001547;28;20143;-50
2023/03/17 04:39:51;;;;;;;7.13;3.20;;;;;;;9.76;81.22;98773.50;5001156;28;20071;-49
2023/03/17 04:42:18;;;;;;;5.93;3.00;;;;;;;9.71;81.50;98775.34;5001676;28;20633;-47
2023/03/17 04:44:45;;;;;;;5.85;3.38;;;;;;;9.74;81.44;98780.44;5009291;28;20564;-46
2023/03/17 04:47:11;;;;;;;7.20;3.42;;;;;;;9.72;81.48;98781.34;5001654;28;20048;-47
2023/03/17 04:49:38;;;;;;;5.95;3.38;;;;;;;9.72;81.35;98784.78;5009268;28;20065;-47
2023/03/17 04:52:05;;;;;;;5.65;3.03;;;;;;;9.69;81.58;98792.59;4998325;28;20046;-49
2023/03/17 04:54:32;;;;;;;6.40;3.60;;;;;;;9.70;81.56;98793.47;4996495;28;20608;-47
2023/03/17 04:56:58;;;;;;;10.18;3.40;;;;;;;9.69;81.26;98782.25;4989324;28;20077;-47
2023/03/17 04:59:26;;;;;;;4.30;1.77;;;;;;;9.67;81.61;98786.63;5000227;28;21047;-48
2023/03/17 05:01:52;;;;;;;6.45;2.55;;;;;;;9.66;80.89;98795.25;5004487;28;20129;-48
2023/03/17 05:04:19;;;;;;;4.82;3.00;;;;;;;9.63;80.96;98784.97;5003893;28;20057;-47
2023/03/17 05:06:57;;;;;;;6.95;2.90;;;;;;;9.59;81.10;98791.94;5009529;28;20052;-49
2023/03/17 05:09:25;;;;;;;4.30;3.10;;;;;;;9.59;81.14;98801.44;5009318;28;20053;-48
2023/03/17 05:11:52;;;;;;;4.75;2.40;;;;;;;9.55;81.40;98794.63;5010084;28;20041;-50
2023/03/17 05:14:19;;;;;;;4.60;2.67;;;;;;;9.55;81.20;98799.78;5006932;28;20112;-47
2023/03/17 05:16:47;;;;;;;5.97;4.18;;;;;;;9.54;80.66;98804.09;5009109;28;20084;-48
2023/03/17 05:19:14;;;;;;;4.72;2.88;;;;;;;9.53;81.07;98799.81;5017966;28;20077;-48
2023/03/17 05:21:41;;;;;;;4.15;2.58;;;;;;;9.49;80.93;98796.41;5004872;28;20053;-47
2023/03/17 05:24:08;;;;;;;8.18;2.90;;;;;;;9.51;80.45;98796.38;5008419;28;20136;-49
2023/03/17 05:26:35;;;;;;;5.88;2.38;;;;;;;9.47;80.79;98805.09;5028057;28;20100;-49
2023/03/17 05:29:02;;;;;;;5.22;2.25;;;;;;;9.44;81.33;98798.25;5006224;28;20132;-49
2023/03/17 05:31:29;;;;;;;4.70;2.60;;;;;;;9.42;81.02;98794.81;5002176;28;20077;-49
2023/03/17 05:33:57;;;;;;;5.30;2.78;;;;;;;9.39;80.75;98800.03;4998616;28;20049;-50
2023/03/17 05:36:24;;;;;;;7.75;2.53;;;;;;;9.30;81.52;98805.38;5001177;28;20058;-48
2023/03/17 05:38:51;;;;;;;5.40;3.03;;;;;;;9.31;81.08;98813.13;5000154;28;20131;-48
2023/03/17 05:41:18;;;;;;;4.38;2.13;;;;;;;9.29;81.09;98804.53;5003112;28;20049;-48
2023/03/17 05:43:44;;;;;;;6.35;2.38;;;;;;;9.25;80.80;98808.03;4995831;28;20578;-49
2023/03/17 05:46:11;;;;;;;5.15;2.60;;;;;;;9.23;81.47;98815.81;4996786;28;20124;-48
2023/03/17 05:48:38;;;;;;;8.85;2.05;;;;;;;9.22;81.54;98814.13;4998973;28;20045;-48
2023/03/17 05:51:05;;;;;;;8.77;2.72;;;;;;;9.20;81.45;98810.72;5006137;28;20057;-47
2023/03/17 05:53:32;;;;;;;7.05;3.05;;;;;;;9.18;81.64;98817.63;5000544;28;20142;-47
2023/03/17 05:55:58;;;;;;;7.70;3.47;;;;;;;9.19;81.46;98819.31;5027527;28;20137;-48
2023/03/17 05:58:25;;;;;;;7.82;3.58;;;;;;;9.17;81.39;98815.94;4985627;28;20108;-48
2023/03/17 06:00:52;;;;;;;6.80;3.08;;;;;;;9.18;81.53;98817.63;4990291;28;20523;-46
2023/03/17 06:03:19;;;;;;;5.03;2.75;;;;;;;9.13;81.18;98814.28;4996287;28;20049;-48
2023/03/17 06:05:47;;;;;;;7.25;2.30;;;;;;;9.11;81.01;98821.19;5002899;28;20079;-48
2023/03/17 06:08:13;;;;;;;4.70;1.42;;;;;;;9.10;80.90;98810.03;5002633;28;20367;-47
2023/03/17 06:10:41;;;;;;;6.20;2.92;;;;;;;9.11;81.46;98806.56;4997325;28;20143;-47
2023/03/17 06:13:09;;;;;;;5.78;2.88;;;;;;;9.09;81.25;98815.22;4992714;28;20049;-47
2023/03/17 06:15:36;;;;;;;4.20;2.35;;;;;;;9.05;81.09;98822.16;5011539;28;20143;-47
2023/03/17 06:18:04;;;;;;;8.75;2.45;;;;;;;9.07;80.66;98814.38;4999018;28;20053;-48
2023/03/17 06:20:31;;;;;;;6.28;2.38;;;;;;;9.06;80.82;98815.25;5001449;28;20096;-47
2023/03/17 06:22:59;;;;;;;3.53;2.47;;;;;;;9.03;80.99;98817.88;4999580;28;20050;-49
2023/03/17 06:25:32;;;;;;;5.15;2.75;;;;;;;9.04;81.58;98827.34;5010690;28;20046;-47
2023/03/17 06:28:01;;;;;;;8.65;3.00;;;;;;;8.99;81.01;98820.50;4997144;28;20061;-47
2023/03/17 06:30:29;;;;;;;5.15;1.42;;;;;;;9.03;81.57;98818.75;4996975;28;20384;-49
2023/03/17 06:32:56;;;;;;;3.17;2.63;;;;;;;9.02;82.20;98813.59;4998615;28;20050;-47
2023/03/17 06:35:23;;;;;;;3.15;2.13;;;;;;;9.06;81.81;98812.69;4999409;28;20141;-48
2023/03/17 06:37:50;;;;;;;5.30;2.33;;;;;;;9.04;81.51;98814.41;5004154;28;20120;-48
2023/03/17 06:40:17;;;;;;;4.95;3.03;;;;;;;9.04;82.26;98814.41;4989159;28;20046;-48
2023/03/17 06:42:43;;;;;;;4.97;2.60;;;;;;;9.05;82.32;98816.97;4993786;28;20050;-48
2023/03/17 06:45:11;;;;;;;4.40;2.55;;;;;;;9.06;81.93;98825.59;5002923;28;20087;-48
2023/03/17 06:47:38;;;;;;;5.85;2.20;;;;;;;9.11;82.11;98826.34;4997500;28;20096;-50
2023/03/17 06:50:08;;;;;;;4.43;2.17;;;;;;;9.10;82.15;98822.06;5003649;28;20461;-48
2023/03/17 06:52:36;;;;;;;6.28;2.50;;;;;;;9.11;82.36;98816.03;4999448;28;20057;-47
2023/03/17 06:55:03;;;;;;;2.83;1.08;;;;;;;9.05;82.89;98816.16;5012069;28;21064;-47
2023/03/17 06:57:30;;;;;;;5.40;2.90;;;;;;;9.07;82.88;98832.44;4993819;28;20069;-48
2023/03/17 06:59:57;;;;;;;5.97;3.25;;;;;;;9.05;82.61;98819.56;4996607;28;20058;-48
2023/03/17 07:02:24;;;;;;;5.60;3.03;;;;;;;9.08;83.03;98823.81;5003497;28;20545;-49
2023/03/17 07:04:51;;;;;;;4.88;3.20;;;;;;;9.12;82.80;98812.59;5002363;28;20494;-47
2023/03/17 07:07:19;;;;;;;7.57;2.75;;;;;;;9.16;82.65;98824.56;5007974;28;20168;-47
2023/03/17 07:09:46;;;;;;;6.93;3.30;;;;;;;9.22;82.72;98824.44;5000144;28;20136;-49
2023/03/17 07:12:13;;;;;;;5.38;1.95;;;;;;;9.29;82.84;98825.19;5002016;28;20484;-48
2023/03/17 07:14:40;;;;;;;6.15;2.10;;;;;;;9.35;83.08;98814.75;5003415;28;20449;-49
2023/03/17 07:17:11;;;;;;;8.30;2.90;;;;;;;9.45;83.11;98815.44;5003679;28;20046;-47
2023/03/17 07:19:39;;;;;;;7.18;3.60;;;;;;;9.51;83.42;98817.94;5005077;28;20050;-49
2023/03/17 07:22:07;;;;;;;5.85;2.78;;;;;;;9.54;83.43;98818.75;5005195;28;20057;-47
2023/03/17 07:24:33;;;;;;;4.20;1.63;;;;;;;9.54;83.22;98823.91;5007856;28;20638;-48
2023/03/17 07:27:00;;;;;;;7.43;3.20;;;;;;;9.61;83.37;98826.38;5004030;28;20050;-49
2023/03/17 07:29:28;;;;;;;6.53;3.42;;;;;;;9.60;83.62;98834.16;5002769;28;20535;-48
2023/03/17 07:31:54;;;;;;;7.43;3.47;;;;;;;9.70;82.64;98835.69;5008494;28;20853;-48
2023/03/17 07:34:21;;;;;;;9.25;4.32;;;;;;;9.71;83.31;98837.38;5002727;28;20505;-47
2023/03/17 07:36:48;;;;;;;9.45;3.50;;;;;;;9.75;82.97;98841.63;4999705;28;20037;-47
2023/03/17 07:39:15;;;;;;;7.30;2.35;;;;;;;9.77;83.40;98847.59;5005864;28;20411;-47
2023/03/17 07:41:42;;;;;;;8.95;4.10;;;;;;;9.77;83.06;98850.19;5006207;28;20057;-47
2023/03/17 07:44:10;;;;;;;8.52;3.75;;;;;;;9.78;84.11;98843.28;5005098;28;20050;-48
2023/03/17 07:46:37;;;;;;;9.52;2.97;;;;;;;10.05;83.27;98858.28;5001509;28;20410;-47
2023/03/17 07:49:05;;;;;;;9.07;3.65;;;;;;;10.19;83.20;98845.94;5000753;28;20115;-48
2023/03/17 07:51:31;;;;;;;8.68;3.65;;;;;;;10.48;83.77;98848.84;5004900;28;20061;-48
2023/03/17 07:54:02;;;;;;;11.75;3.35;;;;;;;11.20;83.33;98845.47;5003387;28;20651;-48
2023/03/17 07:56:31;;;;;;;7.22;3.33;;;;;;;12.01;80.87;98853.75;5002639;28;20814;-48
2023/03/17 07:58:58;;;;;;;7.20;3.95;;;;;;;12.49;79.73;98841.16;5008009;28;20046;-48
2023/03/17 08:01:26;;;;;;;8.18;3.60;;;;;;;12.60;78.14;98840.84;5002757;28;20081;-48
2023/03/17 08:03:54;;;;;;;3.85;2.53;;;;;;;12.64;78.80;98849.38;5006164;28;20049;-52
2023/03/17 08:06:23;;;;;;;4.20;2.78;;;;;;;12.62;77.73;98862.41;4998060;28;20145;-51
2023/03/17 08:08:51;;;;;;;5.90;3.13;;;;;;;12.43;77.97;98851.75;5006109;28;20057;-51
2023/03/17 08:11:18;;;;;;;4.25;2.58;;;;;;;12.21;77.35;98852.34;5008429;28;20128;-49
2023/03/17 08:13:46;;;;;;;7.63;1.40;;;;;;;11.99;77.64;98852.91;5006315;28;20372;-49
2023/03/17 08:16:13;;;;;;;5.28;2.45;;;;;;;11.79;78.14;98851.72;4996455;28;20505;-47
2023/03/17 08:18:39;;;;;;;5.97;2.88;;;;;;;11.71;78.26;98851.09;5005211;28;20046;-48
2023/03/17 08:21:06;;;;;;;4.93;3.17;;;;;;;11.65;78.93;98853.84;5005142;28;20069;-48
2023/03/17 08:23:33;;;;;;;6.30;3.05;;;;;;;11.60;78.30;98866.06;5008952;28;20132;-48
2023/03/17 08:26:02;;;;;;;4.80;2.45;;;;;;;11.50;78.49;98865.47;5007174;28;20042;-50
2023/03/17 08:28:29;;;;;;;6.13;2.72;;;;;;;11.51;79.31;98868.03;5002520;28;20136;-48
2023/03/17 08:31:15;;;;;;;5.28;2.55;;;;;;;11.47;79.48;98863.81;5008621;28;20175;-48
2023/03/17 08:33:47;;;;;;;6.82;3.22;;;;;;;11.54;79.50;98867.09;5013389;28;20480;-48
2023/03/17 08:36:17;;;;;;;4.85;2.67;;;;;;;11.54;78.21;98867.94;5005464;28;20061;-49
2023/03/17 08:38:45;;;;;;;3.50;2.63;;;;;;;11.63;78.79;98861.69;5008825;28;20045;-48
2023/03/17 08:41:15;;;;;;;6.75;2.78;;;;;;;11.65;79.36;98866.81;5009162;28;20144;-49
2023/03/17 08:43:42;;;;;;;7.07;2.20;;;;;;;11.90;78.31;98860.97;5009179;28;20073;-48
2023/03/17 08:48:55;;;;;;;6.00;2.05;;;;;;;12.47;76.66;98866.31;5057460;27;20954;-48
2023/03/17 08:51:25;;;;;;;4.47;1.30;;;;;;;12.40;77.50;98880.38;5000498;28;20069;-49
2023/03/17 08:53:53;;;;;;;3.20;1.70;;;;;;;12.34;77.89;98879.66;5020844;28;20076;-49
2023/03/17 08:56:21;;;;;;;5.38;1.10;;;;;;;12.26;76.66;98880.78;5022934;28;20128;-47
2023/03/17 08:58:48;;;;;;;5.07;1.27;;;;;;;12.18;77.05;98888.78;5004621;28;20107;-48
2023/03/17 09:01:16;;;;;;;5.20;1.33;;;;;;;12.07;77.21;98882.16;5006495;28;20596;-48
2023/03/17 09:03:44;;;;;;;4.68;1.05;;;;;;;12.02;77.64;98891.75;5021758;28;20089;-49
2023/03/17 09:06:11;;;;;;;4.75;1.27;;;;;;;12.02;76.51;98888.34;5006085;28;20398;-48
2023/03/17 09:08:43;;;;;;;2.92;2.03;;;;;;;12.00;76.92;98890.97;5018175;28;20444;-48
2023/03/17 09:11:12;;;;;;;3.90;1.70;;;;;;;12.16;77.67;98885.38;5022896;28;20045;-49
2023/03/17 09:13:40;;;;;;;5.68;1.90;;;;;;;12.44;77.59;98894.97;5037847;28;20161;-48
2023/03/17 09:16:07;;;;;;;5.15;1.67;;;;;;;12.67;77.00;98896.88;5042369;28;20051;-51
2023/03/17 09:18:34;;;;;;;4.25;1.38;;;;;;;12.79;76.77;98897.41;5029436;28;20076;-51
2023/03/17 09:21:02;;;;;;;3.90;1.67;;;;;;;12.89;75.71;98903.19;5022601;28;20162;-49
2023/03/17 09:23:29;;;;;;;6.82;1.23;;;;;;;13.15;75.96;98891.13;5021429;28;20174;-50
2023/03/17 09:25:56;;;;;;;4.32;1.55;;;;;;;13.64;76.27;98898.25;5024958;28;20079;-49
2023/03/17 09:28:23;;;;;;;5.75;1.45;;;;;;;14.30;75.44;98902.88;5021644;28;20179;-49
2023/03/17 09:30:50;;;;;;;4.13;1.30;;;;;;;14.82;74.18;98899.25;5024073;28;20172;-49
2023/03/17 09:33:17;;;;;;;3.55;1.05;;;;;;;15.25;73.08;98888.00;5020079;28;20152;-50
2023/03/17 09:35:44;;;;;;;4.20;0.93;;;;;;;15.53;71.32;98887.72;5009652;28;20656;-50
2023/03/17 09:38:11;;;;;;;6.25;1.40;;;;;;;15.63;70.05;98885.56;5016728;28;20041;-48
2023/03/17 09:40:46;;;;;;;2.75;0.93;;;;;;;15.80;69.88;98886.59;5016869;28;20054;-48
2023/03/17 09:45:51;;;;;;;5.70;0.80;;;;;;;15.87;68.78;98877.59;5040401;27;20915;-48
2023/03/17 09:48:43;;;;;;;6.93;1.63;;;;;;;15.77;67.74;98879.75;5023404;28;20145;-49
2023/03/17 09:51:14;;;;;;;2.88;1.00;;;;;;;16.02;69.60;98877.88;5039260;28;20049;-48
2023/03/17 09:53:50;;;;;;;4.78;1.67;;;;;;;16.06;68.17;98879.44;5029123;28;20073;-47
2023/03/17 09:56:18;;;;;;;4.85;0.95;;;;;;;15.86;67.69;98888.97;5029749;28;20111;-47
2023/03/17 09:58:51;;;;;;;4.22;1.45;;;;;;;15.66;68.08;98885.44;5021532;28;20049;-49
2023/03/17 10:01:18;;;;;;;5.18;1.35;;;;;;;15.37;67.74;98895.31;5023413;28;20072;-48
2023/03/17 10:03:46;;;;;;;6.93;2.42;;;;;;;15.04;67.44;98898.41;4998747;28;20377;-49
2023/03/17 10:06:35;;;;;;;6.57;1.00;;;;;;;14.74;67.92;98906.47;5019683;28;20072;-47
2023/03/17 10:11:42;;;;;;;4.80;1.05;;;;;;;14.47;69.59;98909.22;5041335;27;20918;-48
2023/03/17 10:14:27;;;;;;;4.05;0.93;;;;;;;14.25;69.68;98904.78;4985422;28;20042;-53
2023/03/17 10:17:04;;;;;;;5.00;1.00;;;;;;;14.18;70.15;98898.13;4979256;28;20050;-49
2023/03/17 10:19:40;;;;;;;4.85;1.00;;;;;;;14.11;70.48;98898.34;4978477;28;20525;-50
2023/03/17 10:24:56;;;;;;;4.22;2.75;;;;;;;14.01;70.81;98912.56;5055496;27;20950;-48
2023/03/17 10:27:23;;;;;;;3.88;2.40;;;;;;;13.91;70.59;98917.25;5044344;28;20080;-48
2023/03/17 10:29:50;;;;;;;2.63;0.63;;;;;;;13.80;70.96;98916.78;5025207;28;20488;-48
2023/03/17 10:32:17;;;;;;;8.00;2.78;;;;;;;13.74;71.67;98910.03;5031772;28;20052;-48
2023/03/17 10:34:43;;;;;;;5.50;2.72;;;;;;;13.76;71.79;98913.44;5033952;28;20049;-50
2023/03/17 10:39:52;;;;;;;2.28;0.73;;;;;;;13.80;71.93;98908.97;5059251;27;20402;-49
2023/03/17 10:45:19;;;;;;;1.98;0.82;;;;;;;13.88;71.24;98907.81;5021493;27;20416;-48
2023/03/17 10:47:48;;;;;;;4.90;1.90;;;;;;;14.12;71.15;98905.22;5000209;28;20078;-49
2023/03/17 10:53:26;;;;;;;4.10;1.42;;;;;;;14.38;70.68;98908.66;5042625;27;20404;-47
2023/03/17 10:55:59;;;;;;;3.40;1.20;;;;;;;14.45;70.09;98918.88;5001873;28;20131;-50
2023/03/17 11:01:16;;;;;;;2.88;0.80;;;;;;;14.52;69.93;98922.91;5034915;28;20420;-48
2023/03/17 11:03:43;;;;;;;3.45;1.35;;;;;;;14.50;69.37;98925.59;4978427;28;20495;-50
2023/03/17 11:06:13;;;;;;;2.58;0.82;;;;;;;14.47;69.28;98930.91;4980211;28;20061;-47
2023/03/17 11:08:48;;;;;;;4.97;1.05;;;;;;;14.52;69.45;98922.91;4981458;28;20120;-49
2023/03/17 11:11:34;;;;;;;7.38;1.33;;;;;;;14.51;69.53;98924.69;4982347;28;20077;-49
2023/03/17 11:22:15;;;;;;;4.88;1.40;;;;;;;14.59;68.53;98908.75;5071125;27;20404;-48
2023/03/17 11:24:55;;;;;;;3.33;1.02;;;;;;;14.67;69.06;98900.66;5015770;28;20136;-50
2023/03/17 11:27:32;;;;;;;4.38;0.75;;;;;;;14.77;68.54;98903.78;5017178;28;20088;-50
2023/03/17 11:32:49;;;;;;;5.50;2.63;;;;;;;14.78;68.11;98890.69;5050795;27;20397;-47
2023/03/17 11:38:21;;;;;;;4.82;0.95;;;;;;;14.82;67.81;98899.25;5043547;27;20401;-47
2023/03/17 11:46:49;;;;;;;3.47;0.82;;;;;;;14.81;67.37;98907.13;5049579;27;20402;-48
2023/03/17 11:52:02;;;;;;;2.67;0.82;;;;;;;14.74;67.56;98902.13;5082781;27;20385;-47
2023/03/17 12:03:07;;;;;;;4.40;0.70;;;;;;;14.77;67.69;98901.19;4968314;28;20433;-51
2023/03/17 12:05:36;;;;;;;2.83;1.17;;;;;;;14.78;67.29;98903.72;4973481;28;20535;-47
2023/03/17 12:10:45;;;;;;;7.07;2.15;;;;;;;14.85;66.53;98904.34;5039458;28;20410;-48
2023/03/17 12:13:18;;;;;;;3.67;2.28;;;;;;;14.87;67.15;98897.31;5021280;28;20128;-49
2023/03/17 12:15:51;;;;;;;5.78;3.22;;;;;;;14.95;66.78;98898.75;5022479;28;20065;-48
2023/03/17 12:18:33;;;;;;;5.22;2.17;;;;;;;15.00;67.12;98881.19;5014576;28;20045;-51
2023/03/17 12:21:10;;;;;;;5.00;2.47;;;;;;;15.11;66.86;98880.75;5017862;28;20057;-48
2023/03/17 12:27:04;;;;;;;3.47;0.90;;;;;;;15.27;65.96;98878.38;5066371;27;20419;-51
2023/03/17 12:32:25;;;;;;;4.82;0.82;;;;;;;15.53;65.18;98887.72;5049464;27;20402;-48
2023/03/17 12:34:55;;;;;;;6.28;1.35;;;;;;;15.63;65.56;98890.78;5015447;28;20054;-50
2023/03/17 12:37:26;;;;;;;4.82;2.10;;;;;;;15.80;66.11;98902.25;5001167;28;20441;-48
2023/03/17 12:42:41;;;;;;;5.50;1.33;;;;;;;15.91;64.69;98899.22;5063536;27;20395;-48
2023/03/17 12:51:05;;;;;;;5.68;0.80;;;;;;;16.05;63.57;98881.19;5030536;27;25058;-47
2023/03/17 12:53:35;;;;;;;5.18;1.63;;;;;;;16.08;63.85;98879.38;5021447;28;20402;-48
2023/03/17 12:56:09;;;;;;;;;;;;;;;16.02;64.66;98875.25;5023326;28;20073;-49
2023/03/17 12:58:43;;;;;;;4.85;3.08;;;;;;;16.14;64.56;98869.50;5048680;28;19921;-51
2023/03/17 13:04:26;;;;;;;5.75;1.42;;;;;;;16.26;62.10;98875.06;5092890;27;20383;-47
2023/03/17 13:23:41;;;;;;;3.80;1.27;;;;;;;16.35;62.98;98858.97;5025784;28;20445;-47
2023/03/17 13:26:12;;;;;;;4.15;0.80;;;;;;;16.39;62.44;98852.72;5021129;28;20054;-48
2023/03/17 13:28:42;;;;;;;3.63;0.82;;;;;;;16.43;62.80;98854.25;5022648;28;20135;-51
2023/03/17 13:31:34;;;;;;;3.33;1.05;;;;;;;16.43;62.39;98835.97;5015273;28;20041;-50